Terminal Aerodrome Forecast
Issued by NWS Knoxville/Tri Cities, TN

Home | Current Version | Previous Version | Text Only | Print | Product List | Glossary On
Versions: 1 2 3 4 5 6 7 8 9 10 11 12 13 14 15 16 17 18 19 20 21 22 23 24
000
FTUS44 KMRX 172320
TAFTRI
TAF
KTRI 172320Z 1800/1824 00000KT P6SM SCT250
     FM180900 00000KT 3SM BR SCT002
      TEMPO 1810/1813 1/2SM FG BKN001
     FM181300 00000KT P6SM SKC=

USA.gov is the U.S. government's official web portal to all federal, state and local government web resources and services.